sensor_id;sensor_type;location;lat;lon;timestamp;P1;durP1;ratioP1;P2;durP2;ratioP2
15488;SDS011;7846;48.830;9.116;2022-10-04T00:01:42;9.77;;;7.13;;
15488;SDS011;7846;48.830;9.116;2022-10-04T00:04:22;11.17;;;7.53;;
15488;SDS011;7846;48.830;9.116;2022-10-04T00:06:56;9.57;;;7.40;;
15488;SDS011;7846;48.830;9.116;2022-10-04T00:09:28;10.30;;;7.03;;
15488;SDS011;7846;48.830;9.116;2022-10-04T00:11:58;9.37;;;7.47;;
15488;SDS011;7846;48.830;9.116;2022-10-04T00:14:29;9.60;;;7.80;;
15488;SDS011;7846;48.830;9.116;2022-10-04T00:17:01;9.07;;;6.83;;
15488;SDS011;7846;48.830;9.116;2022-10-04T00:19:41;8.47;;;7.07;;
15488;SDS011;7846;48.830;9.116;2022-10-04T00:22:15;8.67;;;7.00;;
15488;SDS011;7846;48.830;9.116;2022-10-04T00:27:26;10.40;;;7.03;;
15488;SDS011;7846;48.830;9.116;2022-10-04T00:32:28;9.13;;;7.30;;
15488;SDS011;7846;48.830;9.116;2022-10-04T00:35:03;12.63;;;7.80;;
15488;SDS011;7846;48.830;9.116;2022-10-04T00:40:38;8.67;;;7.10;;
15488;SDS011;7846;48.830;9.116;2022-10-04T00:43:12;9.80;;;6.73;;
15488;SDS011;7846;48.830;9.116;2022-10-04T00:45:54;7.67;;;6.87;;
15488;SDS011;7846;48.830;9.116;2022-10-04T00:48:30;10.17;;;7.10;;
15488;SDS011;7846;48.830;9.116;2022-10-04T00:54:13;8.53;;;7.40;;
15488;SDS011;7846;48.830;9.116;2022-10-04T00:57:18;7.70;;;6.90;;
15488;SDS011;7846;48.830;9.116;2022-10-04T01:02:16;11.27;;;7.37;;
15488;SDS011;7846;48.830;9.116;2022-10-04T01:07:16;10.37;;;7.37;;
15488;SDS011;7846;48.830;9.116;2022-10-04T01:09:49;8.77;;;7.37;;
15488;SDS011;7846;48.830;9.116;2022-10-04T01:12:31;10.93;;;7.70;;
15488;SDS011;7846;48.830;9.116;2022-10-04T01:15:05;8.37;;;7.47;;
15488;SDS011;7846;48.830;9.116;2022-10-04T01:17:38;13.93;;;7.40;;
15488;SDS011;7846;48.830;9.116;2022-10-04T01:20:12;9.13;;;7.37;;
15488;SDS011;7846;48.830;9.116;2022-10-04T01:22:55;10.63;;;7.43;;
15488;SDS011;7846;48.830;9.116;2022-10-04T01:26:03;10.27;;;7.00;;
15488;SDS011;7846;48.830;9.116;2022-10-04T01:28:11;8.57;;;7.10;;
15488;SDS011;7846;48.830;9.116;2022-10-04T01:30:36;10.47;;;7.07;;
15488;SDS011;7846;48.830;9.116;2022-10-04T01:33:02;11.40;;;7.47;;
15488;SDS011;7846;48.830;9.116;2022-10-04T01:35:30;10.73;;;7.07;;
15488;SDS011;7846;48.830;9.116;2022-10-04T01:37:57;8.23;;;7.10;;
15488;SDS011;7846;48.830;9.116;2022-10-04T01:40:23;9.83;;;6.47;;
15488;SDS011;7846;48.830;9.116;2022-10-04T01:42:52;8.73;;;6.30;;
15488;SDS011;7846;48.830;9.116;2022-10-04T01:45:33;7.53;;;6.77;;
15488;SDS011;7846;48.830;9.116;2022-10-04T01:48:05;8.87;;;7.00;;
15488;SDS011;7846;48.830;9.116;2022-10-04T01:50:39;11.23;;;7.17;;
15488;SDS011;7846;48.830;9.116;2022-10-04T01:53:19;10.37;;;7.70;;
15488;SDS011;7846;48.830;9.116;2022-10-04T01:55:53;9.27;;;7.03;;
15488;SDS011;7846;48.830;9.116;2022-10-04T01:58:29;10.83;;;7.37;;
15488;SDS011;7846;48.830;9.116;2022-10-04T02:01:13;10.70;;;8.37;;
15488;SDS011;7846;48.830;9.116;2022-10-04T02:06:34;8.50;;;7.10;;
15488;SDS011;7846;48.830;9.116;2022-10-04T02:09:09;10.37;;;7.47;;
15488;SDS011;7846;48.830;9.116;2022-10-04T02:11:39;11.00;;;8.07;;
15488;SDS011;7846;48.830;9.116;2022-10-04T02:14:11;11.40;;;7.63;;
15488;SDS011;7846;48.830;9.116;2022-10-04T02:16:40;10.00;;;7.80;;
15488;SDS011;7846;48.830;9.116;2022-10-04T02:19:12;8.73;;;7.27;;
15488;SDS011;7846;48.830;9.116;2022-10-04T02:21:40;8.47;;;7.53;;
15488;SDS011;7846;48.830;9.116;2022-10-04T02:24:06;11.77;;;7.47;;
15488;SDS011;7846;48.830;9.116;2022-10-04T02:26:33;8.53;;;7.60;;
15488;SDS011;7846;48.830;9.116;2022-10-04T02:28:59;9.27;;;7.63;;
15488;SDS011;7846;48.830;9.116;2022-10-04T02:31:24;10.67;;;7.80;;
15488;SDS011;7846;48.830;9.116;2022-10-04T02:34:10;8.57;;;7.00;;
15488;SDS011;7846;48.830;9.116;2022-10-04T02:36:36;8.13;;;6.70;;
15488;SDS011;7846;48.830;9.116;2022-10-04T02:39:16;7.77;;;6.97;;
15488;SDS011;7846;48.830;9.116;2022-10-04T02:42:00;8.43;;;6.67;;
15488;SDS011;7846;48.830;9.116;2022-10-04T02:44:40;9.33;;;7.20;;
15488;SDS011;7846;48.830;9.116;2022-10-04T02:47:15;9.37;;;7.10;;
15488;SDS011;7846;48.830;9.116;2022-10-04T02:49:48;8.80;;;6.83;;
15488;SDS011;7846;48.830;9.116;2022-10-04T02:52:22;7.77;;;6.70;;
15488;SDS011;7846;48.830;9.116;2022-10-04T02:55:00;10.17;;;7.50;;
15488;SDS011;7846;48.830;9.116;2022-10-04T02:57:30;10.20;;;7.67;;
15488;SDS011;7846;48.830;9.116;2022-10-04T03:05:35;9.77;;;7.40;;
15488;SDS011;7846;48.830;9.116;2022-10-04T03:08:03;10.40;;;8.43;;
15488;SDS011;7846;48.830;9.116;2022-10-04T03:10:31;8.87;;;7.97;;
15488;SDS011;7846;48.830;9.116;2022-10-04T03:12:57;10.63;;;9.03;;
15488;SDS011;7846;48.830;9.116;2022-10-04T03:15:24;11.70;;;9.40;;
15488;SDS011;7846;48.830;9.116;2022-10-04T03:17:50;11.13;;;9.53;;
15488;SDS011;7846;48.830;9.116;2022-10-04T03:20:15;10.70;;;9.40;;
15488;SDS011;7846;48.830;9.116;2022-10-04T03:22:45;9.77;;;8.80;;
15488;SDS011;7846;48.830;9.116;2022-10-04T03:25:16;15.40;;;9.40;;
15488;SDS011;7846;48.830;9.116;2022-10-04T03:27:45;14.17;;;9.87;;
15488;SDS011;7846;48.830;9.116;2022-10-04T03:30:15;14.43;;;10.40;;
15488;SDS011;7846;48.830;9.116;2022-10-04T03:32:44;12.73;;;9.40;;
15488;SDS011;7846;48.830;9.116;2022-10-04T03:35:18;12.03;;;9.90;;
15488;SDS011;7846;48.830;9.116;2022-10-04T03:38:00;11.90;;;10.07;;
15488;SDS011;7846;48.830;9.116;2022-10-04T03:40:30;14.97;;;9.50;;
15488;SDS011;7846;48.830;9.116;2022-10-04T03:42:58;10.60;;;9.20;;
15488;SDS011;7846;48.830;9.116;2022-10-04T03:45:24;12.57;;;9.30;;
15488;SDS011;7846;48.830;9.116;2022-10-04T03:47:52;14.43;;;8.87;;
15488;SDS011;7846;48.830;9.116;2022-10-04T03:50:23;12.27;;;8.20;;
15488;SDS011;7846;48.830;9.116;2022-10-04T03:52:54;11.00;;;8.37;;
15488;SDS011;7846;48.830;9.116;2022-10-04T03:55:31;9.83;;;8.33;;
15488;SDS011;7846;48.830;9.116;2022-10-04T03:58:00;11.70;;;8.73;;
15488;SDS011;7846;48.830;9.116;2022-10-04T04:00:26;10.87;;;8.13;;
15488;SDS011;7846;48.830;9.116;2022-10-04T04:02:57;15.50;;;8.70;;
15488;SDS011;7846;48.830;9.116;2022-10-04T04:05:28;11.37;;;8.30;;
15488;SDS011;7846;48.830;9.116;2022-10-04T04:10:35;10.13;;;8.43;;
15488;SDS011;7846;48.830;9.116;2022-10-04T04:15:32;12.73;;;9.00;;
15488;SDS011;7846;48.830;9.116;2022-10-04T04:18:00;15.60;;;9.53;;
15488;SDS011;7846;48.830;9.116;2022-10-04T04:25:40;12.20;;;8.93;;
15488;SDS011;7846;48.830;9.116;2022-10-04T04:28:51;13.53;;;9.50;;
15488;SDS011;7846;48.830;9.116;2022-10-04T04:31:27;18.17;;;9.80;;
15488;SDS011;7846;48.830;9.116;2022-10-04T04:34:14;14.87;;;10.10;;
15488;SDS011;7846;48.830;9.116;2022-10-04T04:36:42;13.43;;;9.40;;
15488;SDS011;7846;48.830;9.116;2022-10-04T04:39:11;11.37;;;9.17;;
15488;SDS011;7846;48.830;9.116;2022-10-04T04:42:02;11.43;;;8.83;;
15488;SDS011;7846;48.830;9.116;2022-10-04T04:44:34;12.77;;;9.17;;
15488;SDS011;7846;48.830;9.116;2022-10-04T04:47:04;12.03;;;9.20;;
15488;SDS011;7846;48.830;9.116;2022-10-04T04:49:35;12.17;;;9.20;;
15488;SDS011;7846;48.830;9.116;2022-10-04T04:52:03;11.33;;;9.20;;
15488;SDS011;7846;48.830;9.116;2022-10-04T04:54:29;11.23;;;9.13;;
15488;SDS011;7846;48.830;9.116;2022-10-04T04:56:55;12.20;;;9.77;;
15488;SDS011;7846;48.830;9.116;2022-10-04T04:59:22;11.63;;;9.60;;
15488;SDS011;7846;48.830;9.116;2022-10-04T05:01:51;13.43;;;9.27;;
15488;SDS011;7846;48.830;9.116;2022-10-04T05:04:18;12.60;;;10.27;;
15488;SDS011;7846;48.830;9.116;2022-10-04T05:12:17;17.47;;;10.07;;
15488;SDS011;7846;48.830;9.116;2022-10-04T05:14:46;13.30;;;10.30;;
15488;SDS011;7846;48.830;9.116;2022-10-04T05:17:17;13.17;;;10.40;;
15488;SDS011;7846;48.830;9.116;2022-10-04T05:19:48;11.57;;;9.30;;
15488;SDS011;7846;48.830;9.116;2022-10-04T05:22:23;15.43;;;10.07;;
15488;SDS011;7846;48.830;9.116;2022-10-04T05:24:52;11.50;;;10.30;;
15488;SDS011;7846;48.830;9.116;2022-10-04T05:27:28;15.80;;;10.33;;
15488;SDS011;7846;48.830;9.116;2022-10-04T05:29:59;14.73;;;9.97;;
15488;SDS011;7846;48.830;9.116;2022-10-04T05:35:25;14.50;;;10.43;;
15488;SDS011;7846;48.830;9.116;2022-10-04T05:37:57;13.40;;;11.07;;
15488;SDS011;7846;48.830;9.116;2022-10-04T05:49:00;12.10;;;10.70;;
15488;SDS011;7846;48.830;9.116;2022-10-04T05:51:33;15.47;;;10.37;;
15488;SDS011;7846;48.830;9.116;2022-10-04T05:54:11;11.30;;;10.10;;
15488;SDS011;7846;48.830;9.116;2022-10-04T05:59:31;13.00;;;10.10;;
15488;SDS011;7846;48.830;9.116;2022-10-04T06:05:07;12.17;;;10.30;;
15488;SDS011;7846;48.830;9.116;2022-10-04T06:07:47;13.60;;;9.00;;
15488;SDS011;7846;48.830;9.116;2022-10-04T06:24:48;12.70;;;9.80;;
15488;SDS011;7846;48.830;9.116;2022-10-04T06:30:06;17.73;;;9.83;;
15488;SDS011;7846;48.830;9.116;2022-10-04T06:35:29;13.57;;;10.00;;
15488;SDS011;7846;48.830;9.116;2022-10-04T06:43:29;11.70;;;9.83;;
15488;SDS011;7846;48.830;9.116;2022-10-04T06:46:14;13.17;;;9.13;;
15488;SDS011;7846;48.830;9.116;2022-10-04T06:59:54;11.77;;;8.90;;
15488;SDS011;7846;48.830;9.116;2022-10-04T07:02:38;9.83;;;8.20;;
15488;SDS011;7846;48.830;9.116;2022-10-04T07:05:11;8.80;;;7.93;;
15488;SDS011;7846;48.830;9.116;2022-10-04T07:07:45;13.17;;;8.37;;
15488;SDS011;7846;48.830;9.116;2022-10-04T07:10:47;8.73;;;7.90;;
15488;SDS011;7846;48.830;9.116;2022-10-04T07:18:56;7.87;;;7.07;;
15488;SDS011;7846;48.830;9.116;2022-10-04T07:27:02;8.50;;;7.70;;
15488;SDS011;7846;48.830;9.116;2022-10-04T07:29:32;9.57;;;8.17;;
15488;SDS011;7846;48.830;9.116;2022-10-04T07:32:07;13.03;;;8.73;;
15488;SDS011;7846;48.830;9.116;2022-10-04T07:34:42;11.60;;;8.40;;
15488;SDS011;7846;48.830;9.116;2022-10-04T07:37:13;10.07;;;8.80;;
15488;SDS011;7846;48.830;9.116;2022-10-04T07:42:36;12.23;;;8.07;;
15488;SDS011;7846;48.830;9.116;2022-10-04T07:45:16;10.53;;;8.10;;
15488;SDS011;7846;48.830;9.116;2022-10-04T07:47:46;10.43;;;8.27;;
15488;SDS011;7846;48.830;9.116;2022-10-04T07:50:22;10.40;;;7.90;;
15488;SDS011;7846;48.830;9.116;2022-10-04T07:52:56;10.43;;;8.50;;
15488;SDS011;7846;48.830;9.116;2022-10-04T07:55:27;11.37;;;8.80;;
15488;SDS011;7846;48.830;9.116;2022-10-04T08:00:49;9.83;;;8.40;;
15488;SDS011;7846;48.830;9.116;2022-10-04T08:05:59;9.37;;;8.47;;
15488;SDS011;7846;48.830;9.116;2022-10-04T08:08:54;9.47;;;8.27;;
15488;SDS011;7846;48.830;9.116;2022-10-04T08:20:33;8.77;;;7.30;;
15488;SDS011;7846;48.830;9.116;2022-10-04T08:23:12;9.07;;;7.57;;
15488;SDS011;7846;48.830;9.116;2022-10-04T08:28:36;10.33;;;7.20;;
15488;SDS011;7846;48.830;9.116;2022-10-04T08:31:43;9.70;;;7.20;;
15488;SDS011;7846;48.830;9.116;2022-10-04T08:34:30;8.47;;;6.30;;
15488;SDS011;7846;48.830;9.116;2022-10-04T08:54:36;9.60;;;5.87;;
15488;SDS011;7846;48.830;9.116;2022-10-04T08:57:13;10.53;;;6.53;;
15488;SDS011;7846;48.830;9.116;2022-10-04T09:02:55;8.73;;;5.87;;
15488;SDS011;7846;48.830;9.116;2022-10-04T09:11:24;8.73;;;5.67;;
15488;SDS011;7846;48.830;9.116;2022-10-04T09:22:45;6.23;;;4.70;;
15488;SDS011;7846;48.830;9.116;2022-10-04T09:25:18;7.57;;;4.93;;
15488;SDS011;7846;48.830;9.116;2022-10-04T09:28:02;5.60;;;4.43;;
15488;SDS011;7846;48.830;9.116;2022-10-04T09:30:51;5.47;;;4.40;;
15488;SDS011;7846;48.830;9.116;2022-10-04T09:33:41;7.60;;;4.60;;
15488;SDS011;7846;48.830;9.116;2022-10-04T09:36:15;7.73;;;4.80;;
15488;SDS011;7846;48.830;9.116;2022-10-04T09:47:29;4.63;;;3.60;;
15488;SDS011;7846;48.830;9.116;2022-10-04T09:50:07;4.30;;;3.17;;
15488;SDS011;7846;48.830;9.116;2022-10-04T10:07:00;8.77;;;3.23;;
15488;SDS011;7846;48.830;9.116;2022-10-04T10:12:54;5.03;;;2.90;;
15488;SDS011;7846;48.830;9.116;2022-10-04T10:16:32;5.10;;;2.60;;
15488;SDS011;7846;48.830;9.116;2022-10-04T10:22:13;7.63;;;3.40;;
15488;SDS011;7846;48.830;9.116;2022-10-04T10:27:45;5.50;;;2.50;;
15488;SDS011;7846;48.830;9.116;2022-10-04T10:30:22;3.67;;;2.63;;
15488;SDS011;7846;48.830;9.116;2022-10-04T10:41:52;4.70;;;2.53;;
15488;SDS011;7846;48.830;9.116;2022-10-04T10:47:53;4.53;;;2.30;;
15488;SDS011;7846;48.830;9.116;2022-10-04T10:51:40;4.90;;;2.45;;
15488;SDS011;7846;48.830;9.116;2022-10-04T10:53:48;2.90;;;2.03;;
15488;SDS011;7846;48.830;9.116;2022-10-04T10:56:44;3.70;;;2.00;;
15488;SDS011;7846;48.830;9.116;2022-10-04T11:02:35;3.50;;;2.03;;
15488;SDS011;7846;48.830;9.116;2022-10-04T11:46:18;3.20;;;2.10;;
15488;SDS011;7846;48.830;9.116;2022-10-04T11:49:25;4.30;;;2.30;;
15488;SDS011;7846;48.830;9.116;2022-10-04T12:32:18;2.80;;;2.00;;
15488;SDS011;7846;48.830;9.116;2022-10-04T12:35:06;4.33;;;1.90;;
15488;SDS011;7846;48.830;9.116;2022-10-04T12:38:15;3.20;;;1.60;;
15488;SDS011;7846;48.830;9.116;2022-10-04T12:40:55;6.70;;;1.80;;
15488;SDS011;7846;48.830;9.116;2022-10-04T12:54:43;3.33;;;1.63;;
15488;SDS011;7846;48.830;9.116;2022-10-04T13:03:01;2.30;;;1.60;;
15488;SDS011;7846;48.830;9.116;2022-10-04T13:05:33;4.40;;;1.93;;
15488;SDS011;7846;48.830;9.116;2022-10-04T13:11:28;4.30;;;1.67;;
15488;SDS011;7846;48.830;9.116;2022-10-04T13:19:33;2.60;;;1.77;;
15488;SDS011;7846;48.830;9.116;2022-10-04T13:24:44;4.07;;;1.90;;
15488;SDS011;7846;48.830;9.116;2022-10-04T13:33:14;2.47;;;1.90;;
15488;SDS011;7846;48.830;9.116;2022-10-04T13:36:08;2.03;;;1.53;;
15488;SDS011;7846;48.830;9.116;2022-10-04T13:39:25;2.70;;;1.67;;
15488;SDS011;7846;48.830;9.116;2022-10-04T13:53:11;2.40;;;1.80;;
15488;SDS011;7846;48.830;9.116;2022-10-04T14:10:36;3.37;;;1.63;;
15488;SDS011;7846;48.830;9.116;2022-10-04T14:13:29;4.10;;;1.87;;
15488;SDS011;7846;48.830;9.116;2022-10-04T14:22:11;2.20;;;1.67;;
15488;SDS011;7846;48.830;9.116;2022-10-04T14:27:51;2.40;;;1.70;;
15488;SDS011;7846;48.830;9.116;2022-10-04T14:47:32;3.13;;;1.53;;
15488;SDS011;7846;48.830;9.116;2022-10-04T14:50:15;1.90;;;1.60;;
15488;SDS011;7846;48.830;9.116;2022-10-04T14:53:02;2.17;;;1.50;;
15488;SDS011;7846;48.830;9.116;2022-10-04T14:58:31;2.70;;;1.40;;
15488;SDS011;7846;48.830;9.116;2022-10-04T15:01:18;2.37;;;1.70;;
15488;SDS011;7846;48.830;9.116;2022-10-04T15:06:48;2.97;;;1.60;;
15488;SDS011;7846;48.830;9.116;2022-10-04T15:20:25;3.57;;;1.50;;
15488;SDS011;7846;48.830;9.116;2022-10-04T15:25:44;1.70;;;1.43;;
15488;SDS011;7846;48.830;9.116;2022-10-04T15:31:24;2.53;;;1.50;;
15488;SDS011;7846;48.830;9.116;2022-10-04T15:34:02;2.57;;;1.40;;
15488;SDS011;7846;48.830;9.116;2022-10-04T15:42:26;4.43;;;1.60;;
15488;SDS011;7846;48.830;9.116;2022-10-04T15:53:39;2.53;;;1.50;;
15488;SDS011;7846;48.830;9.116;2022-10-04T15:56:12;3.70;;;1.40;;
15488;SDS011;7846;48.830;9.116;2022-10-04T15:59:33;3.03;;;1.60;;
15488;SDS011;7846;48.830;9.116;2022-10-04T16:04:45;2.27;;;1.50;;
15488;SDS011;7846;48.830;9.116;2022-10-04T16:10:26;4.93;;;1.63;;
15488;SDS011;7846;48.830;9.116;2022-10-04T16:15:39;3.07;;;1.60;;
15488;SDS011;7846;48.830;9.116;2022-10-04T16:18:24;2.47;;;1.47;;
15488;SDS011;7846;48.830;9.116;2022-10-04T16:32:12;2.30;;;1.83;;
15488;SDS011;7846;48.830;9.116;2022-10-04T16:34:49;3.00;;;1.90;;
15488;SDS011;7846;48.830;9.116;2022-10-04T16:40:02;3.27;;;2.03;;
15488;SDS011;7846;48.830;9.116;2022-10-04T16:42:51;3.53;;;1.83;;
15488;SDS011;7846;48.830;9.116;2022-10-04T16:56:24;3.73;;;2.30;;
15488;SDS011;7846;48.830;9.116;2022-10-04T17:06:58;3.03;;;2.57;;
15488;SDS011;7846;48.830;9.116;2022-10-04T17:09:28;4.20;;;3.17;;
15488;SDS011;7846;48.830;9.116;2022-10-04T17:12:17;5.57;;;3.10;;
15488;SDS011;7846;48.830;9.116;2022-10-04T17:14:55;6.70;;;3.30;;
15488;SDS011;7846;48.830;9.116;2022-10-04T17:17:53;4.60;;;2.90;;
15488;SDS011;7846;48.830;9.116;2022-10-04T17:20:26;4.17;;;2.80;;
15488;SDS011;7846;48.830;9.116;2022-10-04T17:23:16;6.07;;;2.87;;
15488;SDS011;7846;48.830;9.116;2022-10-04T17:26:10;4.40;;;3.00;;
15488;SDS011;7846;48.830;9.116;2022-10-04T17:29:12;4.07;;;3.70;;
15488;SDS011;7846;48.830;9.116;2022-10-04T17:32:06;4.33;;;3.10;;
15488;SDS011;7846;48.830;9.116;2022-10-04T17:42:48;6.17;;;3.60;;
15488;SDS011;7846;48.830;9.116;2022-10-04T17:48:14;4.90;;;3.30;;
15488;SDS011;7846;48.830;9.116;2022-10-04T17:54:20;8.13;;;3.50;;
15488;SDS011;7846;48.830;9.116;2022-10-04T17:59:46;3.57;;;3.27;;
15488;SDS011;7846;48.830;9.116;2022-10-04T18:02:18;7.60;;;3.70;;
15488;SDS011;7846;48.830;9.116;2022-10-04T18:05:12;5.23;;;3.97;;
15488;SDS011;7846;48.830;9.116;2022-10-04T18:07:46;8.77;;;4.60;;
15488;SDS011;7846;48.830;9.116;2022-10-04T18:10:21;8.17;;;4.67;;
15488;SDS011;7846;48.830;9.116;2022-10-04T18:13:03;6.87;;;4.10;;
15488;SDS011;7846;48.830;9.116;2022-10-04T18:15:53;5.00;;;3.93;;
15488;SDS011;7846;48.830;9.116;2022-10-04T18:18:40;7.93;;;6.90;;
15488;SDS011;7846;48.830;9.116;2022-10-04T18:23:39;17.20;;;15.70;;
15488;SDS011;7846;48.830;9.116;2022-10-04T18:26:19;9.67;;;8.73;;
15488;SDS011;7846;48.830;9.116;2022-10-04T18:28:46;6.77;;;6.07;;
15488;SDS011;7846;48.830;9.116;2022-10-04T18:31:26;6.87;;;6.17;;
15488;SDS011;7846;48.830;9.116;2022-10-04T18:36:45;5.43;;;4.43;;
15488;SDS011;7846;48.830;9.116;2022-10-04T18:41:42;5.17;;;3.90;;
15488;SDS011;7846;48.830;9.116;2022-10-04T18:44:25;5.60;;;4.00;;
15488;SDS011;7846;48.830;9.116;2022-10-04T18:46:55;6.23;;;5.63;;
15488;SDS011;7846;48.830;9.116;2022-10-04T18:49:23;9.53;;;6.17;;
15488;SDS011;7846;48.830;9.116;2022-10-04T18:57:25;5.23;;;4.30;;
15488;SDS011;7846;48.830;9.116;2022-10-04T19:05:51;5.77;;;4.03;;
15488;SDS011;7846;48.830;9.116;2022-10-04T19:10:57;5.80;;;4.20;;
15488;SDS011;7846;48.830;9.116;2022-10-04T19:14:16;5.73;;;4.30;;
15488;SDS011;7846;48.830;9.116;2022-10-04T19:19:38;6.40;;;4.50;;
15488;SDS011;7846;48.830;9.116;2022-10-04T19:22:13;7.53;;;4.53;;
15488;SDS011;7846;48.830;9.116;2022-10-04T19:28:17;7.43;;;4.53;;
15488;SDS011;7846;48.830;9.116;2022-10-04T19:33:37;5.73;;;4.70;;
15488;SDS011;7846;48.830;9.116;2022-10-04T19:39:04;7.33;;;5.23;;
15488;SDS011;7846;48.830;9.116;2022-10-04T19:52:33;6.73;;;4.80;;
15488;SDS011;7846;48.830;9.116;2022-10-04T19:55:03;5.80;;;4.90;;
15488;SDS011;7846;48.830;9.116;2022-10-04T19:58:24;6.77;;;5.10;;
15488;SDS011;7846;48.830;9.116;2022-10-04T20:00:48;5.83;;;4.77;;
15488;SDS011;7846;48.830;9.116;2022-10-04T20:03:13;6.33;;;5.57;;
15488;SDS011;7846;48.830;9.116;2022-10-04T20:05:47;7.30;;;4.57;;
15488;SDS011;7846;48.830;9.116;2022-10-04T20:08:15;7.33;;;4.80;;
15488;SDS011;7846;48.830;9.116;2022-10-04T20:11:13;6.33;;;4.50;;
15488;SDS011;7846;48.830;9.116;2022-10-04T20:13:42;5.50;;;4.73;;
15488;SDS011;7846;48.830;9.116;2022-10-04T20:16:08;5.40;;;4.57;;
15488;SDS011;7846;48.830;9.116;2022-10-04T20:21:10;5.07;;;4.33;;
15488;SDS011;7846;48.830;9.116;2022-10-04T20:23:48;7.60;;;4.63;;
15488;SDS011;7846;48.830;9.116;2022-10-04T20:32:00;8.23;;;5.00;;
15488;SDS011;7846;48.830;9.116;2022-10-04T20:37:04;6.27;;;4.87;;
15488;SDS011;7846;48.830;9.116;2022-10-04T20:42:29;7.23;;;5.30;;
15488;SDS011;7846;48.830;9.116;2022-10-04T20:45:00;6.57;;;4.97;;
15488;SDS011;7846;48.830;9.116;2022-10-04T20:47:38;6.27;;;4.90;;
15488;SDS011;7846;48.830;9.116;2022-10-04T20:52:55;8.27;;;5.90;;
15488;SDS011;7846;48.830;9.116;2022-10-04T20:57:57;6.87;;;5.87;;
15488;SDS011;7846;48.830;9.116;2022-10-04T21:00:24;7.57;;;5.80;;
15488;SDS011;7846;48.830;9.116;2022-10-04T21:03:07;9.03;;;5.83;;
15488;SDS011;7846;48.830;9.116;2022-10-04T21:05:37;8.63;;;5.80;;
15488;SDS011;7846;48.830;9.116;2022-10-04T21:08:19;9.63;;;6.07;;
15488;SDS011;7846;48.830;9.116;2022-10-04T21:14:00;8.93;;;5.33;;
15488;SDS011;7846;48.830;9.116;2022-10-04T21:16:39;8.00;;;5.47;;
15488;SDS011;7846;48.830;9.116;2022-10-04T21:19:29;7.03;;;5.50;;
15488;SDS011;7846;48.830;9.116;2022-10-04T21:22:08;6.73;;;5.67;;
15488;SDS011;7846;48.830;9.116;2022-10-04T21:27:03;6.60;;;5.60;;
15488;SDS011;7846;48.830;9.116;2022-10-04T21:29:30;9.80;;;6.63;;
15488;SDS011;7846;48.830;9.116;2022-10-04T21:31:56;9.50;;;6.23;;
15488;SDS011;7846;48.830;9.116;2022-10-04T21:34:23;10.07;;;6.90;;
15488;SDS011;7846;48.830;9.116;2022-10-04T21:36:54;8.37;;;6.37;;
15488;SDS011;7846;48.830;9.116;2022-10-04T21:39:19;9.37;;;6.30;;
15488;SDS011;7846;48.830;9.116;2022-10-04T21:41:45;8.90;;;6.40;;
15488;SDS011;7846;48.830;9.116;2022-10-04T21:44:11;6.77;;;6.07;;
15488;SDS011;7846;48.830;9.116;2022-10-04T21:46:36;10.60;;;5.93;;
15488;SDS011;7846;48.830;9.116;2022-10-04T21:49:02;8.90;;;6.50;;
15488;SDS011;7846;48.830;9.116;2022-10-04T21:51:28;7.77;;;6.93;;
15488;SDS011;7846;48.830;9.116;2022-10-04T21:53:57;8.10;;;6.60;;
15488;SDS011;7846;48.830;9.116;2022-10-04T21:56:26;9.57;;;7.17;;
15488;SDS011;7846;48.830;9.116;2022-10-04T21:58:51;8.00;;;7.20;;
15488;SDS011;7846;48.830;9.116;2022-10-04T22:01:19;8.20;;;6.87;;
15488;SDS011;7846;48.830;9.116;2022-10-04T22:03:44;10.53;;;7.17;;
15488;SDS011;7846;48.830;9.116;2022-10-04T22:06:10;8.80;;;6.90;;
15488;SDS011;7846;48.830;9.116;2022-10-04T22:08:37;9.30;;;7.00;;
15488;SDS011;7846;48.830;9.116;2022-10-04T22:11:07;9.83;;;7.23;;
15488;SDS011;7846;48.830;9.116;2022-10-04T22:13:33;10.87;;;8.03;;
15488;SDS011;7846;48.830;9.116;2022-10-04T22:15:58;12.10;;;8.20;;
15488;SDS011;7846;48.830;9.116;2022-10-04T22:18:24;8.53;;;7.57;;
15488;SDS011;7846;48.830;9.116;2022-10-04T22:20:49;10.30;;;7.00;;
15488;SDS011;7846;48.830;9.116;2022-10-04T22:23:22;12.07;;;7.30;;
15488;SDS011;7846;48.830;9.116;2022-10-04T22:25:49;7.93;;;7.00;;
15488;SDS011;7846;48.830;9.116;2022-10-04T22:28:22;11.67;;;7.40;;
15488;SDS011;7846;48.830;9.116;2022-10-04T22:30:49;9.20;;;6.87;;
15488;SDS011;7846;48.830;9.116;2022-10-04T22:33:22;9.40;;;6.77;;
15488;SDS011;7846;48.830;9.116;2022-10-04T22:35:50;9.80;;;7.10;;
15488;SDS011;7846;48.830;9.116;2022-10-04T22:38:16;8.93;;;6.97;;
15488;SDS011;7846;48.830;9.116;2022-10-04T22:40:43;8.47;;;6.67;;
15488;SDS011;7846;48.830;9.116;2022-10-04T22:43:10;7.97;;;6.67;;
15488;SDS011;7846;48.830;9.116;2022-10-04T22:45:38;11.80;;;6.90;;
15488;SDS011;7846;48.830;9.116;2022-10-04T22:48:09;8.27;;;5.97;;
15488;SDS011;7846;48.830;9.116;2022-10-04T22:50:38;7.33;;;6.53;;
15488;SDS011;7846;48.830;9.116;2022-10-04T22:53:10;11.50;;;6.93;;
15488;SDS011;7846;48.830;9.116;2022-10-04T22:55:38;8.93;;;6.37;;
15488;SDS011;7846;48.830;9.116;2022-10-04T22:58:05;8.00;;;6.43;;
15488;SDS011;7846;48.830;9.116;2022-10-04T23:00:30;8.63;;;6.43;;
15488;SDS011;7846;48.830;9.116;2022-10-04T23:02:56;9.90;;;6.37;;
15488;SDS011;7846;48.830;9.116;2022-10-04T23:05:21;8.97;;;6.43;;
15488;SDS011;7846;48.830;9.116;2022-10-04T23:07:47;10.17;;;6.70;;
15488;SDS011;7846;48.830;9.116;2022-10-04T23:10:13;7.40;;;5.93;;
15488;SDS011;7846;48.830;9.116;2022-10-04T23:12:45;9.50;;;6.57;;
15488;SDS011;7846;48.830;9.116;2022-10-04T23:15:15;7.27;;;6.57;;
15488;SDS011;7846;48.830;9.116;2022-10-04T23:17:43;9.20;;;6.80;;
15488;SDS011;7846;48.830;9.116;2022-10-04T23:20:17;8.63;;;6.40;;
15488;SDS011;7846;48.830;9.116;2022-10-04T23:22:45;7.07;;;6.37;;
15488;SDS011;7846;48.830;9.116;2022-10-04T23:27:46;9.87;;;6.67;;
15488;SDS011;7846;48.830;9.116;2022-10-04T23:30:13;8.27;;;6.40;;
15488;SDS011;7846;48.830;9.116;2022-10-04T23:32:44;9.03;;;6.47;;
15488;SDS011;7846;48.830;9.116;2022-10-04T23:35:14;6.77;;;6.17;;
15488;SDS011;7846;48.830;9.116;2022-10-04T23:37:46;7.43;;;5.90;;
15488;SDS011;7846;48.830;9.116;2022-10-04T23:40:12;8.47;;;6.23;;
15488;SDS011;7846;48.830;9.116;2022-10-04T23:42:40;8.63;;;6.30;;
15488;SDS011;7846;48.830;9.116;2022-10-04T23:45:10;8.90;;;6.73;;
15488;SDS011;7846;48.830;9.116;2022-10-04T23:47:40;8.47;;;6.40;;
15488;SDS011;7846;48.830;9.116;2022-10-04T23:53:02;7.90;;;7.00;;
15488;SDS011;7846;48.830;9.116;2022-10-04T23:55:40;7.23;;;6.50;;
15488;SDS011;7846;48.830;9.116;2022-10-04T23:58:21;6.33;;;5.63;;
